This is the latest recevied weather packets stored in our database for station/object KE8RXN. If no packets are shown the sender has not sent any weather packets the latest 1 day(s).
| Time | Temp. | Humidity | Pressure | Rain* | Wind** | Luminosity | Snow |
|---|---|---|---|---|---|---|---|
| 1777995200 | 11.67° C | 37% | 1011.1 hPa | 0 mm | 1.79 m/s, 276° | 566 W/m² | - |
| 1777994897 | 11.67° C | 37% | 1011.2 hPa | 0 mm | 1.34 m/s, 284° | 413 W/m² | - |
| 1777994593 | 12.22° C | 39% | 1011.2 hPa | 0 mm | 1.34 m/s, 255° | 311 W/m² | - |
| 1777994288 | 11.67° C | 40% | 1011.1 hPa | 0 mm | 1.34 m/s, 289° | 704 W/m² | - |
| 1777993985 | 11.67° C | 41% | 1011.3 hPa | 0 mm | 0.89 m/s, 257° | 589 W/m² | - |
| 1777993682 | 11.11° C | 41% | 1011.3 hPa | 0 mm | 1.79 m/s, 261° | 639 W/m² | - |
| 1777993379 | 11.11° C | 44% | 1011.2 hPa | 0 mm | 0.45 m/s, 305° | 507 W/m² | - |
| 1777993073 | 11.11° C | 43% | 1011.1 hPa | 0 mm | 1.34 m/s, 255° | 309 W/m² | - |
| 1777992773 | 10.56° C | 45% | 1011.1 hPa | 0 mm | 0.45 m/s, 356° | 373 W/m² | - |
| 1777992469 | 10.56° C | 44% | 1011 hPa | 0 mm | 1.34 m/s, 309° | 372 W/m² | - |
| 1777992168 | 10° C | 45% | 1011.3 hPa | 0 mm | 0.89 m/s, 299° | 346 W/m² | - |
| 1777991864 | 10.56° C | 45% | 1011.2 hPa | 0 mm | 1.34 m/s, 287° | 269 W/m² | - |
| 1777991562 | 10.56° C | 47% | 1011.2 hPa | 0 mm | 1.34 m/s, 266° | 511 W/m² | - |
| 1777991259 | 10° C | 50% | 1011.1 hPa | 0 mm | 0.45 m/s, 310° | 528 W/m² | - |
| 1777990956 | 9.44° C | 52% | 1011.1 hPa | 0 mm | 0.89 m/s, 349° | 296 W/m² | - |
| 1777990654 | 9.44° C | 53% | 1011 hPa | 0 mm | 1.34 m/s, 321° | 238 W/m² | - |
| 1777990351 | 9.44° C | 55% | 1010.8 hPa | 0 mm | 0.45 m/s, 334° | 128 W/m² | - |
| 1777990046 | 9.44° C | 55% | 1010.8 hPa | 0 mm | 1.34 m/s, 305° | 144 W/m² | - |
| 1777989744 | 9.44° C | 56% | 1010.9 hPa | 0 mm | 0.45 m/s, 350° | 149 W/m² | - |
| 1777989440 | 10° C | 55% | 1010.9 hPa | 0 mm | 1.34 m/s, 312° | 156 W/m² | - |
| 1777989137 | 10° C | 57% | 1010.8 hPa | 0 mm | 1.34 m/s, 268° | 241 W/m² | - |
| 1777988832 | 9.44° C | 57% | 1010.6 hPa | 0 mm | 0.89 m/s, 304° | 350 W/m² | - |
| 1777988530 | 10° C | 59% | 1010.6 hPa | 0 mm | 0.89 m/s, 277° | 199 W/m² | - |
| 1777988227 | 10° C | 60% | 1010.4 hPa | 0 mm | 0.45 m/s, 344° | 230 W/m² | - |
| 1777987923 | 10° C | 61% | 1011.1 hPa | 0 mm | 0.45 m/s, 313° | 248 W/m² | - |
* Rain latest hour (hover to see other rain measurements)
** Current wind speed in m/s (hover to see current wind gust speed)